Flight Track Log - Related Links

Times and Time Zones

All times are in EDT time to prevent confusion due to time zone crossing. See the USC105 flight status page for this flight to view local times or setup timezone preferences in your user account.

Time Position Orientation Groundspeed Altitude Reporting Facility
EDT Latitude Longitude Course Direction KTS MPH feet Rate Location/Type
Thu 09:58:02 PM 39.8506 -82.8694 49° Northeast 138 159 2,700  Level Indianapolis Center
Thu 09:59:03 PM 39.8750 -82.8325 49° Northeast 133 153 3,600 803 Climbing Indianapolis Center
Thu 10:00:09 PM 39.9089 -82.8308 North 119 137 4,400 689 Climbing Indianapolis Center
Thu 10:01:05 PM 39.9425 -82.8294 North 125 144 5,000 310 Climbing Indianapolis Center
Thu 10:02:05 PM 39.9844 -82.8306 359° North 155 178 5,000  Level Indianapolis Center
Thu 10:03:00 PM 40.0219 -82.8339 356° North 155 178 5,000  Level Indianapolis Center
Thu 10:04:01 PM 40.0636 -82.8378 356° North 146 168 5,000  Level Indianapolis Center
Thu 10:05:15 PM 40.1094 -82.8353 North 147 169 5,000  Level Indianapolis Center
Thu 10:06:02 PM 40.1464 -82.8264 10° North 156 180 5,000  Level Indianapolis Center
Thu 10:07:03 PM 40.1853 -82.7942 32° Northeast 164 189 5,000  Level Indianapolis Center
Thu 10:07:58 PM 40.2192 -82.7667 32° Northeast 161 185 5,000  Level Indianapolis Center
Thu 10:09:20 PM 40.2736 -82.7239 31° Northeast 163 188 5,000  Level Indianapolis Center
Thu 10:10:11 PM 40.3056 -82.6953 34° Northeast 169 194 5,000  Level Indianapolis Center
Thu 10:11:12 PM 40.3428 -82.6572 38° Northeast 174 200 5,000  Level Indianapolis Center
Thu 10:12:13 PM 40.3706 -82.6067 54° Northeast 179 206 5,000  Level Indianapolis Center
Thu 10:13:25 PM 40.4078 -82.5472 51° Northeast 175 201 5,000  Level Indianapolis Center
Thu 10:14:26 PM 40.4353 -82.4928 56° Northeast 175 201 5,000  Level Indianapolis Center
Thu 10:15:27 PM 40.4622 -82.4367 58° Northeast 177 204 5,000  Level Indianapolis Center
Thu 10:16:28 PM 40.4917 -82.3847 53° Northeast 177 204 5,000  Level Indianapolis Center
Thu 10:17:29 PM 40.5161 -82.3286 60° Northeast 176 203 5,000  Level Indianapolis Center
Thu 10:18:31 PM 40.5578 -82.3169 12° North 166 191 5,000  Level Indianapolis Center
Thu 10:19:32 PM 40.5975 -82.2911 26° Northeast 160 184 5,000  Level Indianapolis Center
Thu 10:20:33 PM 40.6369 -82.2658 26° Northeast 158 182 5,000  Level Indianapolis Center
Thu 10:21:34 PM 40.6786 -82.2442 22° Northeast 158 182 5,000  Level Indianapolis Center
Thu 10:22:35 PM 40.7178 -82.2175 27° Northeast 158 182 5,000  Level Indianapolis Center
Thu 10:23:36 PM 40.7561 -82.1908 28° Northeast 155 178 5,000  Level Indianapolis Center
Thu 10:24:37 PM 40.7953 -82.1639 28° Northeast 156 180 5,000  Level Indianapolis Center
Thu 10:25:38 PM 40.8356 -82.1367 27° Northeast 159 183 5,000  Level Indianapolis Center
Thu 10:26:16 PM 40.8678 -82.1206 21° North 163 188 5,000  Level Cleveland Center

Login

Don't have an account? Register now (free) for customized features, flight alerts, and more!